createdAt,value
2024-01-22T00:02:19.376Z,5.13
2024-01-22T00:04:51.327Z,4.65
2024-01-22T00:07:23.078Z,5.05
2024-01-22T00:09:54.975Z,4.78
2024-01-22T00:12:27.206Z,4.63
2024-01-22T00:14:59.033Z,4.35
2024-01-22T00:17:31.003Z,4.60
2024-01-22T00:20:03.786Z,3.75
2024-01-22T00:22:36.200Z,4.72
2024-01-22T00:25:08.522Z,4.22
2024-01-22T00:27:40.513Z,3.65
2024-01-22T00:30:12.896Z,4.28
2024-01-22T00:32:44.867Z,3.88
2024-01-22T00:35:17.274Z,3.38
2024-01-22T00:37:49.021Z,3.35
2024-01-22T00:40:21.768Z,3.38
2024-01-22T00:42:53.507Z,3.92
2024-01-22T00:45:25.115Z,4.20
2024-01-22T00:47:57.546Z,3.55
2024-01-22T00:50:29.590Z,3.28
2024-01-22T00:53:01.524Z,3.50
2024-01-22T00:55:33.394Z,3.58
2024-01-22T00:58:05.225Z,3.65
2024-01-22T01:00:36.973Z,3.53
2024-01-22T01:03:08.943Z,3.28
2024-01-22T01:05:40.747Z,4.15
2024-01-22T01:08:12.705Z,3.40
2024-01-22T01:10:44.459Z,3.78
2024-01-22T01:13:16.118Z,3.05
2024-01-22T01:15:47.930Z,3.65
2024-01-22T01:18:19.852Z,3.45
2024-01-22T01:20:51.798Z,3.55
2024-01-22T01:23:24.007Z,3.60
2024-01-22T01:25:55.974Z,3.42
2024-01-22T01:28:28.029Z,3.33
2024-01-22T01:30:59.810Z,4.15
2024-01-22T01:33:31.708Z,3.58
2024-01-22T01:36:03.830Z,3.72
2024-01-22T01:38:36.360Z,3.67
2024-01-22T01:41:08.106Z,3.70
2024-01-22T01:43:39.816Z,3.40
2024-01-22T01:46:11.524Z,2.97
2024-01-22T01:48:43.969Z,4.72
2024-01-22T01:51:16.254Z,3.03
2024-01-22T01:53:49.552Z,3.25
2024-01-22T01:56:21.383Z,3.13
2024-01-22T01:58:53.199Z,3.33
2024-01-22T02:01:25.158Z,2.97
2024-01-22T02:03:57.066Z,3.40
2024-01-22T02:06:28.883Z,3.70
2024-01-22T02:09:00.715Z,3.22
2024-01-22T02:11:32.513Z,3.53
2024-01-22T02:14:04.271Z,3.05
2024-01-22T02:16:35.884Z,3.60
2024-01-22T02:19:08.498Z,3.67
2024-01-22T02:21:40.194Z,3.10
2024-01-22T02:24:12.036Z,3.53
2024-01-22T02:26:43.682Z,3.70
2024-01-22T02:29:15.325Z,3.35
2024-01-22T02:31:49.490Z,3.67
2024-01-22T02:34:21.296Z,3.30
2024-01-22T02:36:52.920Z,3.35
2024-01-22T02:39:24.530Z,2.97
2024-01-22T02:41:56.177Z,3.30
2024-01-22T02:44:27.824Z,3.15
2024-01-22T02:46:59.331Z,3.30
2024-01-22T02:49:31.005Z,3.72
2024-01-22T02:52:02.595Z,3.83
2024-01-22T02:54:34.164Z,3.58
2024-01-22T02:57:06.048Z,3.70
2024-01-22T02:59:38.478Z,3.72
2024-01-22T03:02:10.274Z,3.55
2024-01-22T03:04:41.958Z,3.80
2024-01-22T03:07:13.708Z,3.78
2024-01-22T03:09:45.441Z,4.03
2024-01-22T03:12:18.509Z,3.70
2024-01-22T03:14:50.160Z,4.53
2024-01-22T03:17:21.751Z,3.92
2024-01-22T03:19:53.653Z,3.65
2024-01-22T03:22:25.279Z,3.85
2024-01-22T03:24:56.941Z,4.63
2024-01-22T03:27:28.583Z,3.53
2024-01-22T03:30:00.686Z,4.25
2024-01-22T03:32:32.317Z,3.95
2024-01-22T03:35:04.097Z,4.00
2024-01-22T03:37:35.665Z,4.60
2024-01-22T03:40:08.894Z,4.00
2024-01-22T03:42:40.489Z,4.82
2024-01-22T03:45:12.184Z,3.97
2024-01-22T03:47:43.942Z,4.68
2024-01-22T03:50:15.654Z,4.28
2024-01-22T03:52:47.274Z,4.85
2024-01-22T03:55:18.882Z,4.70
2024-01-22T03:57:50.514Z,3.95
2024-01-22T04:00:22.502Z,4.45
2024-01-22T04:02:54.256Z,4.72
2024-01-22T04:05:25.836Z,4.43
2024-01-22T04:07:58.092Z,4.68
2024-01-22T04:10:29.628Z,4.55
2024-01-22T04:13:03.228Z,3.90
2024-01-22T04:15:35.608Z,4.30
2024-01-22T04:18:08.142Z,5.07
2024-01-22T04:20:39.968Z,4.60
2024-01-22T04:23:11.588Z,4.82
2024-01-22T04:25:43.122Z,4.40
2024-01-22T04:28:15.836Z,3.90
2024-01-22T04:30:47.669Z,4.00
2024-01-22T04:33:19.479Z,4.35
2024-01-22T04:35:51.220Z,4.07
2024-01-22T04:38:23.380Z,3.80
2024-01-22T04:40:54.925Z,3.80
2024-01-22T04:43:26.494Z,3.50
2024-01-22T04:45:58.021Z,3.83
2024-01-22T04:48:29.935Z,3.90
2024-01-22T04:51:01.683Z,4.63
2024-01-22T04:53:33.289Z,3.75
2024-01-22T04:56:05.095Z,3.58
2024-01-22T04:58:36.717Z,4.28
2024-01-22T05:01:08.246Z,3.40
2024-01-22T05:03:39.989Z,4.15
2024-01-22T05:06:11.729Z,4.32
2024-01-22T05:08:43.682Z,4.47
2024-01-22T05:11:15.274Z,4.22
2024-01-22T05:13:50.711Z,4.10
2024-01-22T05:16:23.328Z,4.30
2024-01-22T05:18:55.201Z,4.10
2024-01-22T05:21:26.947Z,5.60
2024-01-22T05:23:58.623Z,5.15
2024-01-22T05:26:30.270Z,4.10
2024-01-22T05:29:01.833Z,4.40
2024-01-22T05:31:33.638Z,4.32
2024-01-22T05:34:05.540Z,5.07
2024-01-22T05:36:39.057Z,4.20
2024-01-22T05:39:10.645Z,4.63
2024-01-22T05:41:42.910Z,4.32
2024-01-22T05:44:14.482Z,4.25
2024-01-22T05:46:46.075Z,4.65
2024-01-22T05:49:19.991Z,4.95
2024-01-22T05:51:51.734Z,4.38
2024-01-22T05:54:23.426Z,4.18
2024-01-22T05:56:55.272Z,4.90
2024-01-22T05:59:27.026Z,4.25
2024-01-22T06:01:58.614Z,3.95
2024-01-22T06:04:30.207Z,4.85
2024-01-22T06:07:05.572Z,6.30
2024-01-22T06:09:38.879Z,4.20
2024-01-22T06:12:10.966Z,5.32
2024-01-22T06:14:42.515Z,3.97
2024-01-22T06:17:14.056Z,4.53
2024-01-22T06:19:45.763Z,4.07
2024-01-22T06:22:19.310Z,3.90
2024-01-22T06:24:50.947Z,2.85
2024-01-22T06:27:23.052Z,4.68
2024-01-22T06:29:58.871Z,4.63
2024-01-22T06:32:31.047Z,3.95
2024-01-22T06:35:02.846Z,3.05
2024-01-22T06:37:35.402Z,2.75
2024-01-22T06:40:07.875Z,2.85
2024-01-22T06:42:40.001Z,3.55
2024-01-22T06:45:11.822Z,2.50
2024-01-22T06:47:43.662Z,2.53
2024-01-22T06:50:15.514Z,3.25
2024-01-22T06:52:47.342Z,2.90
2024-01-22T06:55:19.976Z,3.22
2024-01-22T06:57:51.890Z,2.75
2024-01-22T07:00:23.783Z,4.20
2024-01-22T07:02:55.671Z,3.08
2024-01-22T07:05:27.652Z,4.35
2024-01-22T07:07:59.587Z,3.90
2024-01-22T07:10:31.518Z,3.80
2024-01-22T07:13:03.048Z,3.13
2024-01-22T07:15:34.760Z,3.00
2024-01-22T07:18:06.749Z,3.05
2024-01-22T07:20:38.499Z,2.25
2024-01-22T07:23:10.085Z,4.30
2024-01-22T07:25:41.611Z,3.00
2024-01-22T07:28:13.297Z,2.75
2024-01-22T07:30:45.018Z,2.15
2024-01-22T07:33:16.785Z,2.25
2024-01-22T07:35:48.618Z,3.05
2024-01-22T07:38:20.190Z,2.55
2024-01-22T07:40:54.116Z,2.88
2024-01-22T07:43:27.704Z,4.35
2024-01-22T07:46:01.014Z,3.05
2024-01-22T07:48:32.739Z,2.58
2024-01-22T07:51:04.553Z,3.95
2024-01-22T07:53:36.504Z,2.75
2024-01-22T07:56:08.423Z,3.47
2024-01-22T07:58:40.805Z,2.53
2024-01-22T08:01:12.459Z,2.80
2024-01-22T08:03:44.085Z,2.58
2024-01-22T08:06:15.736Z,2.70
2024-01-22T08:08:47.505Z,2.78
2024-01-22T08:11:19.553Z,2.00
2024-01-22T08:13:51.166Z,2.33
2024-01-22T08:16:22.723Z,2.00
2024-01-22T08:18:54.493Z,1.67
2024-01-22T08:21:26.136Z,2.08
2024-01-22T08:23:57.680Z,1.40
2024-01-22T08:26:29.247Z,1.80
2024-01-22T08:29:01.079Z,1.70
2024-01-22T08:31:32.598Z,1.88
2024-01-22T08:34:04.465Z,2.17
2024-01-22T08:36:36.210Z,2.25
2024-01-22T08:39:07.776Z,2.00
2024-01-22T08:41:39.596Z,2.78
2024-01-22T08:44:11.648Z,1.77
2024-01-22T08:46:43.769Z,2.05
2024-01-22T08:49:15.414Z,2.45
2024-01-22T08:51:47.253Z,2.28
2024-01-22T08:54:19.034Z,2.30
2024-01-22T08:56:50.772Z,1.90
2024-01-22T08:59:22.377Z,2.10
2024-01-22T09:01:54.890Z,2.00
2024-01-22T09:04:26.452Z,1.85
2024-01-22T09:06:58.051Z,2.33
2024-01-22T09:09:29.714Z,2.53
2024-01-22T09:12:01.314Z,2.00
2024-01-22T09:14:32.956Z,1.95
2024-01-22T09:17:04.653Z,2.67
2024-01-22T09:19:36.467Z,4.63
2024-01-22T09:22:08.060Z,3.88
2024-01-22T09:24:39.577Z,3.53
2024-01-22T09:27:11.166Z,3.80
2024-01-22T09:29:43.117Z,3.15
2024-01-22T09:32:14.782Z,2.95
2024-01-22T09:34:46.707Z,1.42
2024-01-22T09:37:18.736Z,1.95
2024-01-22T09:39:51.546Z,2.22
2024-01-22T09:42:23.362Z,2.35
2024-01-22T09:44:55.039Z,2.65
2024-01-22T09:47:26.641Z,3.08
2024-01-22T09:49:59.686Z,3.28
2024-01-22T09:52:33.233Z,2.22
2024-01-22T09:55:05.342Z,2.75
2024-01-22T09:57:38.242Z,2.97
2024-01-22T10:00:10.883Z,2.88
2024-01-22T10:02:42.604Z,3.08
2024-01-22T10:05:14.168Z,2.30
2024-01-22T10:07:45.765Z,2.80
2024-01-22T10:10:19.975Z,3.05
2024-01-22T10:13:01.685Z,2.97
2024-01-22T10:15:33.724Z,3.08
2024-01-22T10:18:09.873Z,2.58
2024-01-22T10:20:44.283Z,3.28
2024-01-22T10:23:17.641Z,3.60
2024-01-22T10:25:49.651Z,3.45
2024-01-22T10:28:22.559Z,3.95
2024-01-22T10:31:04.765Z,2.88
2024-01-22T10:33:36.550Z,2.80
2024-01-22T10:36:16.037Z,3.35
2024-01-22T10:39:05.531Z,3.75
2024-01-22T10:41:40.104Z,2.63
2024-01-22T10:44:12.509Z,3.67
2024-01-22T10:46:44.293Z,4.45
2024-01-22T10:49:16.511Z,3.65
2024-01-22T10:51:51.213Z,5.40
2024-01-22T10:54:23.866Z,2.88
2024-01-22T10:57:04.029Z,2.97
2024-01-22T10:59:42.818Z,3.80
2024-01-22T11:02:18.796Z,4.28
2024-01-22T11:04:59.399Z,4.00
2024-01-22T11:07:33.889Z,4.82
2024-01-22T11:10:07.439Z,3.28
2024-01-22T11:12:51.582Z,5.00
2024-01-22T11:15:23.543Z,5.00
2024-01-22T11:17:55.451Z,3.92
2024-01-22T11:20:27.284Z,3.92
2024-01-22T11:22:59.555Z,4.43
2024-01-22T11:25:31.316Z,3.75
2024-01-22T11:28:08.872Z,4.25
2024-01-22T11:30:42.909Z,4.93
2024-01-22T11:33:31.637Z,4.40
2024-01-22T11:36:04.062Z,5.63
2024-01-22T11:38:54.411Z,4.65
2024-01-22T11:41:30.909Z,3.97
2024-01-22T11:44:03.230Z,4.40
2024-01-22T11:46:35.220Z,4.65
2024-01-22T11:49:10.840Z,3.88
2024-01-22T11:51:42.666Z,5.30
2024-01-22T11:54:14.243Z,5.20
2024-01-22T11:56:46.934Z,6.03
2024-01-22T11:59:18.779Z,4.57
2024-01-22T12:01:50.608Z,7.32
2024-01-22T12:04:22.615Z,4.65
2024-01-22T12:06:54.688Z,4.35
2024-01-22T12:09:26.643Z,4.50
2024-01-22T12:12:04.190Z,5.18
2024-01-22T12:14:35.814Z,5.35
2024-01-22T12:17:07.445Z,5.20
2024-01-22T12:19:39.062Z,4.85
2024-01-22T12:22:10.683Z,4.07
2024-01-22T12:24:42.260Z,4.70
2024-01-22T12:27:20.900Z,4.65
2024-01-22T12:30:02.507Z,5.80
2024-01-22T12:32:36.437Z,4.35
2024-01-22T12:35:08.860Z,4.25
2024-01-22T12:37:42.252Z,4.53
2024-01-22T12:40:18.424Z,4.30
2024-01-22T12:42:51.531Z,5.18
2024-01-22T12:45:25.072Z,5.47
2024-01-22T12:47:57.615Z,3.70
2024-01-22T12:50:33.913Z,6.00
2024-01-22T12:53:06.975Z,4.93
2024-01-22T12:55:39.428Z,3.45
2024-01-22T12:58:12.104Z,4.50
2024-01-22T13:00:44.121Z,4.40
2024-01-22T13:03:18.097Z,3.47
2024-01-22T13:05:49.801Z,3.10
2024-01-22T13:08:21.580Z,3.65
2024-01-22T13:10:53.261Z,4.07
2024-01-22T13:13:25.447Z,2.97
2024-01-22T13:16:11.408Z,4.18
2024-01-22T13:18:48.357Z,5.35
2024-01-22T13:21:21.479Z,3.70
2024-01-22T13:23:54.260Z,3.40
2024-01-22T13:26:26.036Z,3.80
2024-01-22T13:28:57.640Z,2.85
2024-01-22T13:31:29.507Z,3.42
2024-01-22T13:34:01.207Z,3.53
2024-01-22T13:36:33.212Z,3.40
2024-01-22T13:39:06.023Z,3.38
2024-01-22T13:41:37.744Z,3.80
2024-01-22T13:44:14.428Z,3.85
2024-01-22T13:46:46.281Z,4.40
2024-01-22T13:49:18.945Z,2.80
2024-01-22T13:51:53.973Z,3.05
2024-01-22T13:54:27.511Z,4.25
2024-01-22T13:56:59.592Z,3.33
2024-01-22T13:59:31.380Z,3.30
2024-01-22T14:02:02.980Z,3.33
2024-01-22T14:04:35.554Z,4.18
2024-01-22T14:07:10.415Z,3.83
2024-01-22T14:09:42.198Z,4.18
2024-01-22T14:12:14.315Z,3.22
2024-01-22T14:14:46.443Z,4.10
2024-01-22T14:17:18.450Z,4.18
2024-01-22T14:19:50.195Z,4.05
2024-01-22T14:22:24.910Z,3.10
2024-01-22T14:24:56.672Z,4.22
2024-01-22T14:27:28.263Z,3.67
2024-01-22T14:30:00.004Z,3.15
2024-01-22T14:32:32.587Z,4.00
2024-01-22T14:35:06.054Z,3.60
2024-01-22T14:37:38.872Z,3.15
2024-01-22T14:40:12.058Z,3.60
2024-01-22T14:42:43.627Z,3.85
2024-01-22T14:45:15.472Z,3.83
2024-01-22T14:47:47.113Z,3.30
2024-01-22T14:50:18.925Z,3.90
2024-01-22T14:52:50.743Z,3.58
2024-01-22T14:55:24.875Z,3.40
2024-01-22T14:57:56.418Z,2.65
2024-01-22T15:00:28.377Z,3.47
2024-01-22T15:03:00.606Z,3.03
2024-01-22T15:05:33.106Z,3.38
2024-01-22T15:08:05.107Z,3.00
2024-01-22T15:10:39.946Z,3.03
2024-01-22T15:13:13.137Z,3.90
2024-01-22T15:15:44.839Z,2.55
2024-01-22T15:18:18.869Z,3.30
2024-01-22T15:20:50.916Z,3.38
2024-01-22T15:23:22.718Z,3.88
2024-01-22T15:25:55.600Z,3.38
2024-01-22T15:28:27.289Z,3.13
2024-01-22T15:30:59.213Z,4.25
2024-01-22T15:33:30.968Z,5.32
2024-01-22T15:36:02.804Z,2.60
2024-01-22T15:38:34.996Z,3.22
2024-01-22T15:41:10.564Z,5.85
2024-01-22T15:43:42.485Z,4.03
2024-01-22T15:46:14.508Z,4.20
2024-01-22T15:48:46.302Z,4.28
2024-01-22T15:51:18.017Z,5.20
2024-01-22T15:53:49.700Z,3.58
2024-01-22T15:56:21.453Z,4.00
2024-01-22T15:58:53.030Z,3.58
2024-01-22T16:01:26.950Z,2.92
2024-01-22T16:03:58.672Z,2.95
2024-01-22T16:06:30.611Z,3.95
2024-01-22T16:09:02.583Z,3.80
2024-01-22T16:11:34.591Z,3.78
2024-01-22T16:14:07.475Z,3.70
2024-01-22T16:16:39.160Z,3.28
2024-01-22T16:19:17.272Z,6.32
2024-01-22T16:21:55.302Z,4.45
2024-01-22T16:24:27.170Z,4.22
2024-01-22T16:27:00.480Z,3.78
2024-01-22T16:29:32.663Z,3.80
2024-01-22T16:32:04.601Z,3.72
2024-01-22T16:34:36.534Z,3.45
2024-01-22T16:37:17.878Z,3.65
2024-01-22T16:39:52.116Z,2.97
2024-01-22T16:42:23.828Z,4.50
2024-01-22T16:44:55.466Z,3.85
2024-01-22T16:47:27.228Z,3.00
2024-01-22T16:49:59.075Z,3.78
2024-01-22T16:52:30.810Z,4.47
2024-01-22T16:55:02.447Z,3.30
2024-01-22T16:57:34.227Z,4.03
2024-01-22T17:00:06.640Z,3.88
2024-01-22T17:02:38.319Z,5.07
2024-01-22T17:05:11.193Z,3.78
2024-01-22T17:07:42.922Z,4.95
2024-01-22T17:10:14.865Z,6.50
2024-01-22T17:12:46.575Z,6.50
2024-01-22T17:15:18.469Z,5.05
2024-01-22T17:17:52.503Z,5.20
2024-01-22T17:20:32.438Z,6.22
2024-01-22T17:23:07.414Z,7.85
2024-01-22T17:25:39.221Z,7.20
2024-01-22T17:28:11.976Z,5.57
2024-01-22T17:30:43.752Z,8.57
2024-01-22T17:33:17.769Z,4.90
2024-01-22T17:35:49.905Z,5.70
2024-01-22T17:38:21.887Z,5.85
2024-01-22T17:40:53.509Z,5.30
2024-01-22T17:43:25.202Z,3.63
2024-01-22T17:45:57.074Z,5.45
2024-01-22T17:48:29.110Z,4.35
2024-01-22T17:51:01.185Z,4.30
2024-01-22T17:53:34.362Z,4.75
2024-01-22T17:56:06.223Z,4.18
2024-01-22T17:58:38.118Z,4.50
2024-01-22T18:01:09.702Z,4.50
2024-01-22T18:03:42.852Z,3.67
2024-01-22T18:06:14.665Z,4.70
2024-01-22T18:08:46.341Z,5.55
2024-01-22T18:11:18.089Z,4.63
2024-01-22T18:13:49.722Z,4.85
2024-01-22T18:16:21.372Z,4.53
2024-01-22T18:18:53.083Z,7.18
2024-01-22T18:21:24.880Z,5.68
2024-01-22T18:23:56.948Z,4.07
2024-01-22T18:26:28.829Z,6.13
2024-01-22T18:29:01.446Z,5.45
2024-01-22T18:31:33.107Z,6.10
2024-01-22T18:34:04.879Z,4.68
2024-01-22T18:36:36.586Z,4.30
2024-01-22T18:39:10.079Z,5.55
2024-01-22T18:41:42.179Z,5.28
2024-01-22T18:44:13.772Z,4.43
2024-01-22T18:46:45.322Z,4.90
2024-01-22T18:49:17.102Z,3.38
2024-01-22T18:51:48.919Z,6.05
2024-01-22T18:54:23.317Z,4.90
2024-01-22T18:56:55.072Z,3.95
2024-01-22T18:59:27.589Z,5.13
2024-01-22T19:01:59.413Z,4.95
2024-01-22T19:04:32.575Z,5.10
2024-01-22T19:07:04.367Z,5.35
2024-01-22T19:09:36.073Z,3.60
2024-01-22T19:12:08.563Z,4.90
2024-01-22T19:14:40.522Z,4.97
2024-01-22T19:17:12.179Z,6.07
2024-01-22T19:19:44.027Z,4.70
2024-01-22T19:22:15.959Z,5.07
2024-01-22T19:24:47.502Z,5.90
2024-01-22T19:27:19.749Z,6.28
2024-01-22T19:29:51.300Z,6.63
2024-01-22T19:32:23.269Z,5.97
2024-01-22T19:34:54.951Z,5.57
2024-01-22T19:37:26.621Z,3.58
2024-01-22T19:39:58.831Z,3.92
2024-01-22T19:42:30.920Z,3.58
2024-01-22T19:45:02.663Z,4.60
2024-01-22T19:47:36.875Z,3.30
2024-01-22T19:50:09.192Z,3.50
2024-01-22T19:52:40.876Z,5.32
2024-01-22T19:55:13.011Z,4.53
2024-01-22T19:57:45.041Z,5.10
2024-01-22T20:00:17.330Z,4.50
2024-01-22T20:02:49.065Z,3.90
2024-01-22T20:05:22.758Z,4.20
2024-01-22T20:07:56.530Z,5.00
2024-01-22T20:10:29.211Z,5.97
2024-01-22T20:13:00.803Z,3.88
2024-01-22T20:15:32.533Z,3.75
2024-01-22T20:18:06.217Z,4.32
2024-01-22T20:20:37.949Z,3.30
2024-01-22T20:23:10.245Z,2.75
2024-01-22T20:25:42.010Z,4.45
2024-01-22T20:28:13.697Z,2.92
2024-01-22T20:30:45.460Z,3.92
2024-01-22T20:33:17.227Z,3.83
2024-01-22T20:35:49.524Z,3.65
2024-01-22T20:38:21.184Z,3.20
2024-01-22T20:40:53.245Z,3.15
2024-01-22T20:43:27.238Z,2.92
2024-01-22T20:45:59.080Z,3.42
2024-01-22T20:48:30.765Z,3.55
2024-01-22T20:51:02.488Z,3.08
2024-01-22T20:53:34.955Z,3.65
2024-01-22T20:56:10.425Z,4.80
2024-01-22T20:58:44.641Z,3.17
2024-01-22T21:01:20.533Z,2.85
2024-01-22T21:03:52.483Z,2.88
2024-01-22T21:06:24.394Z,3.10
2024-01-22T21:08:56.490Z,2.88
2024-01-22T21:11:28.284Z,2.83
2024-01-22T21:14:04.107Z,3.00
2024-01-22T21:16:38.344Z,3.38
2024-01-22T21:19:10.435Z,3.80
2024-01-22T21:21:43.090Z,3.13
2024-01-22T21:24:15.338Z,2.63
2024-01-22T21:26:47.403Z,2.88
2024-01-22T21:29:19.703Z,4.07
2024-01-22T21:31:53.308Z,5.47
2024-01-22T21:34:25.255Z,3.40
2024-01-22T21:36:56.963Z,3.10
2024-01-22T21:39:28.758Z,3.60
2024-01-22T21:42:00.490Z,2.83
2024-01-22T21:44:33.105Z,3.28
2024-01-22T21:47:05.169Z,3.40
2024-01-22T21:49:36.863Z,3.08
2024-01-22T21:52:09.476Z,2.83
2024-01-22T21:54:41.189Z,3.20
2024-01-22T21:57:13.174Z,3.45
2024-01-22T21:59:48.738Z,3.67
2024-01-22T22:02:20.405Z,2.67
2024-01-22T22:04:52.322Z,3.03
2024-01-22T22:07:24.193Z,3.20
2024-01-22T22:09:58.033Z,3.58
2024-01-22T22:12:29.757Z,2.92
2024-01-22T22:15:01.693Z,3.00
2024-01-22T22:17:33.597Z,2.67
2024-01-22T22:20:06.612Z,3.30
2024-01-22T22:22:39.384Z,4.68
2024-01-22T22:25:11.120Z,4.35
2024-01-22T22:27:42.744Z,4.30
2024-01-22T22:30:14.486Z,2.47
2024-01-22T22:32:47.146Z,3.92
2024-01-22T22:35:18.825Z,3.72
2024-01-22T22:37:50.455Z,2.78
2024-01-22T22:40:22.667Z,3.65
2024-01-22T22:42:54.319Z,2.50
2024-01-22T22:45:26.594Z,3.47
2024-01-22T22:47:58.303Z,3.15
2024-01-22T22:50:30.325Z,2.75
2024-01-22T22:53:01.925Z,3.13
2024-01-22T22:55:33.581Z,3.00
2024-01-22T22:58:05.288Z,3.65
2024-01-22T23:00:37.415Z,3.95
2024-01-22T23:03:09.516Z,3.13
2024-01-22T23:05:41.202Z,3.20
2024-01-22T23:08:12.865Z,3.58
2024-01-22T23:10:44.503Z,2.80
2024-01-22T23:13:16.955Z,2.47
2024-01-22T23:15:48.775Z,3.15
2024-01-22T23:18:40.818Z,3.28
2024-01-22T23:21:12.835Z,2.97
2024-01-22T23:23:45.037Z,2.95
2024-01-22T23:26:16.634Z,3.05
2024-01-22T23:28:48.361Z,3.75
2024-01-22T23:31:22.318Z,2.88
2024-01-22T23:33:54.549Z,3.00
2024-01-22T23:36:29.399Z,2.63
2024-01-22T23:39:05.577Z,2.65
2024-01-22T23:41:37.260Z,2.88
2024-01-22T23:44:09.102Z,3.20
2024-01-22T23:46:40.771Z,3.45
2024-01-22T23:49:12.595Z,6.70
2024-01-22T23:51:44.426Z,3.38
2024-01-22T23:54:16.163Z,2.85
2024-01-22T23:56:47.952Z,2.60
2024-01-22T23:59:19.552Z,2.83
